Terminal Aerodrome Forecast
Issued by NWS

Home | Current Version | Previous Version | Text Only | Print | Product List | Glossary On
Versions: 1 2 3 4 5 6 7 8 9 10 11 12
426
FTPA31 PHFO 222337
TAFHJR
TAF
PHJR 222337Z 2300/2324 07014G22KT P6SM FEW030 SCT045 BKN250
     FM230300 06008KT P6SM FEW025 SCT035 SCT250=

USA.gov is the U.S. government's official web portal to all federal, state and local government web resources and services.